sensor_id;sensor_type;location;lat;lon;timestamp;temperature;humidity
20125;DHT22;10223;50.862;4.360;2022-08-20T00:00:54;18.90;99.90
20125;DHT22;10223;50.862;4.360;2022-08-20T00:03:24;18.80;99.90
20125;DHT22;10223;50.862;4.360;2022-08-20T00:05:55;18.70;99.90
20125;DHT22;10223;50.862;4.360;2022-08-20T00:08:24;18.60;99.90
20125;DHT22;10223;50.862;4.360;2022-08-20T00:10:51;18.60;99.90
20125;DHT22;10223;50.862;4.360;2022-08-20T00:13:21;18.60;99.90
20125;DHT22;10223;50.862;4.360;2022-08-20T00:15:49;18.70;99.90
20125;DHT22;10223;50.862;4.360;2022-08-20T00:18:16;18.70;99.90
20125;DHT22;10223;50.862;4.360;2022-08-20T00:20:45;18.80;99.90
20125;DHT22;10223;50.862;4.360;2022-08-20T00:23:12;18.70;99.90
20125;DHT22;10223;50.862;4.360;2022-08-20T00:25:42;18.70;99.90
20125;DHT22;10223;50.862;4.360;2022-08-20T00:28:09;18.80;99.90
20125;DHT22;10223;50.862;4.360;2022-08-20T00:30:40;18.70;99.90
20125;DHT22;10223;50.862;4.360;2022-08-20T00:33:09;18.50;99.90
20125;DHT22;10223;50.862;4.360;2022-08-20T00:35:40;18.50;99.90
20125;DHT22;10223;50.862;4.360;2022-08-20T00:38:07;18.40;99.90
20125;DHT22;10223;50.862;4.360;2022-08-20T00:40:37;18.30;99.90
20125;DHT22;10223;50.862;4.360;2022-08-20T00:43:22;18.20;99.90
20125;DHT22;10223;50.862;4.360;2022-08-20T00:45:50;18.10;99.90
20125;DHT22;10223;50.862;4.360;2022-08-20T00:48:20;18.00;99.90
20125;DHT22;10223;50.862;4.360;2022-08-20T00:50:47;18.00;99.90
20125;DHT22;10223;50.862;4.360;2022-08-20T00:53:14;18.00;99.90
20125;DHT22;10223;50.862;4.360;2022-08-20T00:55:41;18.00;99.90
20125;DHT22;10223;50.862;4.360;2022-08-20T00:58:09;18.00;99.90
20125;DHT22;10223;50.862;4.360;2022-08-20T01:00:40;18.00;99.90
20125;DHT22;10223;50.862;4.360;2022-08-20T01:03:09;17.90;99.90
20125;DHT22;10223;50.862;4.360;2022-08-20T01:05:38;17.90;99.90
20125;DHT22;10223;50.862;4.360;2022-08-20T01:08:05;17.80;99.90
20125;DHT22;10223;50.862;4.360;2022-08-20T01:10:36;17.80;99.90
20125;DHT22;10223;50.862;4.360;2022-08-20T01:13:06;17.80;99.90
20125;DHT22;10223;50.862;4.360;2022-08-20T01:15:38;17.70;99.90
20125;DHT22;10223;50.862;4.360;2022-08-20T01:18:06;17.80;99.90
20125;DHT22;10223;50.862;4.360;2022-08-20T01:20:37;17.80;99.90
20125;DHT22;10223;50.862;4.360;2022-08-20T01:23:10;17.70;99.90
20125;DHT22;10223;50.862;4.360;2022-08-20T01:25:57;17.70;99.90
20125;DHT22;10223;50.862;4.360;2022-08-20T01:28:31;17.70;99.90
20125;DHT22;10223;50.862;4.360;2022-08-20T01:30:59;17.50;99.90
20125;DHT22;10223;50.862;4.360;2022-08-20T01:33:26;17.50;99.90
20125;DHT22;10223;50.862;4.360;2022-08-20T01:35:53;17.50;99.90
20125;DHT22;10223;50.862;4.360;2022-08-20T01:38:20;17.50;99.90
20125;DHT22;10223;50.862;4.360;2022-08-20T01:41:09;17.60;99.90
20125;DHT22;10223;50.862;4.360;2022-08-20T01:43:39;17.50;99.90
20125;DHT22;10223;50.862;4.360;2022-08-20T01:46:08;17.40;99.90
20125;DHT22;10223;50.862;4.360;2022-08-20T01:48:36;17.50;99.90
20125;DHT22;10223;50.862;4.360;2022-08-20T01:51:06;17.50;99.90
20125;DHT22;10223;50.862;4.360;2022-08-20T01:53:38;17.50;99.90
20125;DHT22;10223;50.862;4.360;2022-08-20T01:56:09;17.50;99.90
20125;DHT22;10223;50.862;4.360;2022-08-20T01:58:42;17.40;99.90
20125;DHT22;10223;50.862;4.360;2022-08-20T02:01:19;17.40;99.90
20125;DHT22;10223;50.862;4.360;2022-08-20T02:03:46;17.30;99.90
20125;DHT22;10223;50.862;4.360;2022-08-20T02:06:13;17.20;99.90
20125;DHT22;10223;50.862;4.360;2022-08-20T02:08:40;17.10;99.90
20125;DHT22;10223;50.862;4.360;2022-08-20T02:11:09;17.00;99.90
20125;DHT22;10223;50.862;4.360;2022-08-20T02:13:37;16.90;99.90
20125;DHT22;10223;50.862;4.360;2022-08-20T02:16:05;16.90;99.90
20125;DHT22;10223;50.862;4.360;2022-08-20T02:18:32;16.90;99.90
20125;DHT22;10223;50.862;4.360;2022-08-20T02:21:00;16.90;99.90
20125;DHT22;10223;50.862;4.360;2022-08-20T02:23:27;16.80;99.90
20125;DHT22;10223;50.862;4.360;2022-08-20T02:25:54;16.80;99.90
20125;DHT22;10223;50.862;4.360;2022-08-20T02:28:22;16.80;99.90
20125;DHT22;10223;50.862;4.360;2022-08-20T02:30:52;16.90;99.90
20125;DHT22;10223;50.862;4.360;2022-08-20T02:33:21;16.90;99.90
20125;DHT22;10223;50.862;4.360;2022-08-20T02:35:49;16.90;99.90
20125;DHT22;10223;50.862;4.360;2022-08-20T02:38:16;17.10;99.90
20125;DHT22;10223;50.862;4.360;2022-08-20T02:40:46;16.90;99.90
20125;DHT22;10223;50.862;4.360;2022-08-20T02:43:13;16.90;99.90
20125;DHT22;10223;50.862;4.360;2022-08-20T02:45:44;16.90;99.90
20125;DHT22;10223;50.862;4.360;2022-08-20T02:48:14;16.90;99.90
20125;DHT22;10223;50.862;4.360;2022-08-20T02:50:45;16.90;99.90
20125;DHT22;10223;50.862;4.360;2022-08-20T02:53:15;16.80;99.90
20125;DHT22;10223;50.862;4.360;2022-08-20T02:55:42;16.70;99.90
20125;DHT22;10223;50.862;4.360;2022-08-20T02:58:10;16.70;99.90
20125;DHT22;10223;50.862;4.360;2022-08-20T03:00:37;16.70;99.90
20125;DHT22;10223;50.862;4.360;2022-08-20T03:03:06;16.60;99.90
20125;DHT22;10223;50.862;4.360;2022-08-20T03:05:34;16.60;99.90
20125;DHT22;10223;50.862;4.360;2022-08-20T03:08:01;16.50;99.90
20125;DHT22;10223;50.862;4.360;2022-08-20T03:10:30;16.50;99.90
20125;DHT22;10223;50.862;4.360;2022-08-20T03:12:58;16.50;99.90
20125;DHT22;10223;50.862;4.360;2022-08-20T03:15:27;16.50;99.90
20125;DHT22;10223;50.862;4.360;2022-08-20T03:17:54;16.50;99.90
20125;DHT22;10223;50.862;4.360;2022-08-20T03:20:23;16.40;99.90
20125;DHT22;10223;50.862;4.360;2022-08-20T03:22:51;16.40;99.90
20125;DHT22;10223;50.862;4.360;2022-08-20T03:25:18;16.40;99.90
20125;DHT22;10223;50.862;4.360;2022-08-20T03:27:45;16.30;99.90
20125;DHT22;10223;50.862;4.360;2022-08-20T03:30:15;16.30;99.90
20125;DHT22;10223;50.862;4.360;2022-08-20T03:32:42;16.20;99.90
20125;DHT22;10223;50.862;4.360;2022-08-20T03:35:11;16.30;99.90
20125;DHT22;10223;50.862;4.360;2022-08-20T03:37:40;16.20;99.90
20125;DHT22;10223;50.862;4.360;2022-08-20T03:40:10;16.30;99.90
20125;DHT22;10223;50.862;4.360;2022-08-20T03:42:38;16.10;99.90
20125;DHT22;10223;50.862;4.360;2022-08-20T03:45:07;16.20;99.90
20125;DHT22;10223;50.862;4.360;2022-08-20T03:47:35;16.10;99.90
20125;DHT22;10223;50.862;4.360;2022-08-20T03:50:04;16.10;99.90
20125;DHT22;10223;50.862;4.360;2022-08-20T03:52:31;16.10;99.90
20125;DHT22;10223;50.862;4.360;2022-08-20T03:55:00;16.10;99.90
20125;DHT22;10223;50.862;4.360;2022-08-20T03:57:27;16.10;99.90
20125;DHT22;10223;50.862;4.360;2022-08-20T03:59:54;16.10;99.90
20125;DHT22;10223;50.862;4.360;2022-08-20T04:02:21;16.10;99.90
20125;DHT22;10223;50.862;4.360;2022-08-20T04:04:50;16.00;99.90
20125;DHT22;10223;50.862;4.360;2022-08-20T04:07:20;16.10;99.90
20125;DHT22;10223;50.862;4.360;2022-08-20T04:09:50;16.10;99.90
20125;DHT22;10223;50.862;4.360;2022-08-20T04:12:18;16.00;99.90
20125;DHT22;10223;50.862;4.360;2022-08-20T04:14:45;15.90;99.90
20125;DHT22;10223;50.862;4.360;2022-08-20T04:17:12;15.90;99.90
20125;DHT22;10223;50.862;4.360;2022-08-20T04:19:40;15.90;99.90
20125;DHT22;10223;50.862;4.360;2022-08-20T04:22:09;15.80;99.90
20125;DHT22;10223;50.862;4.360;2022-08-20T04:24:38;15.80;99.90
20125;DHT22;10223;50.862;4.360;2022-08-20T04:27:06;15.70;99.90
20125;DHT22;10223;50.862;4.360;2022-08-20T04:29:35;15.70;99.90
20125;DHT22;10223;50.862;4.360;2022-08-20T04:32:03;15.70;99.90
20125;DHT22;10223;50.862;4.360;2022-08-20T04:34:30;15.80;99.90
20125;DHT22;10223;50.862;4.360;2022-08-20T04:36:57;15.70;99.90
20125;DHT22;10223;50.862;4.360;2022-08-20T04:39:23;15.70;99.90
20125;DHT22;10223;50.862;4.360;2022-08-20T04:41:51;15.70;99.90
20125;DHT22;10223;50.862;4.360;2022-08-20T04:44:17;15.70;99.90
20125;DHT22;10223;50.862;4.360;2022-08-20T04:46:47;15.70;99.90
20125;DHT22;10223;50.862;4.360;2022-08-20T04:49:14;15.70;99.90
20125;DHT22;10223;50.862;4.360;2022-08-20T04:51:41;15.70;99.90
20125;DHT22;10223;50.862;4.360;2022-08-20T04:54:08;15.60;99.90
20125;DHT22;10223;50.862;4.360;2022-08-20T04:56:38;15.60;99.90
20125;DHT22;10223;50.862;4.360;2022-08-20T04:59:05;15.60;99.90
20125;DHT22;10223;50.862;4.360;2022-08-20T05:01:32;15.60;99.90
20125;DHT22;10223;50.862;4.360;2022-08-20T05:04:01;15.60;99.90
20125;DHT22;10223;50.862;4.360;2022-08-20T05:06:29;15.60;99.90
20125;DHT22;10223;50.862;4.360;2022-08-20T05:08:58;15.50;99.90
20125;DHT22;10223;50.862;4.360;2022-08-20T05:11:25;15.50;99.90
20125;DHT22;10223;50.862;4.360;2022-08-20T05:13:52;15.50;99.90
20125;DHT22;10223;50.862;4.360;2022-08-20T05:16:20;15.50;99.90
20125;DHT22;10223;50.862;4.360;2022-08-20T05:18:48;15.50;99.90
20125;DHT22;10223;50.862;4.360;2022-08-20T05:21:17;15.50;99.90
20125;DHT22;10223;50.862;4.360;2022-08-20T05:23:44;15.50;99.90
20125;DHT22;10223;50.862;4.360;2022-08-20T05:26:12;15.50;99.90
20125;DHT22;10223;50.862;4.360;2022-08-20T05:28:40;15.50;99.90
20125;DHT22;10223;50.862;4.360;2022-08-20T05:31:07;15.60;99.90
20125;DHT22;10223;50.862;4.360;2022-08-20T05:33:35;15.50;99.90
20125;DHT22;10223;50.862;4.360;2022-08-20T05:36:03;15.50;99.90
20125;DHT22;10223;50.862;4.360;2022-08-20T05:38:35;15.40;99.90
20125;DHT22;10223;50.862;4.360;2022-08-20T05:41:03;15.40;99.90
20125;DHT22;10223;50.862;4.360;2022-08-20T05:43:31;15.50;99.90
20125;DHT22;10223;50.862;4.360;2022-08-20T05:45:59;15.50;99.90
20125;DHT22;10223;50.862;4.360;2022-08-20T05:48:27;15.50;99.90
20125;DHT22;10223;50.862;4.360;2022-08-20T05:50:55;15.60;99.90
20125;DHT22;10223;50.862;4.360;2022-08-20T05:53:23;15.60;99.90
20125;DHT22;10223;50.862;4.360;2022-08-20T05:55:52;15.60;99.90
20125;DHT22;10223;50.862;4.360;2022-08-20T05:58:24;15.70;99.90
20125;DHT22;10223;50.862;4.360;2022-08-20T06:00:52;15.70;99.90
20125;DHT22;10223;50.862;4.360;2022-08-20T06:03:20;15.70;99.90
20125;DHT22;10223;50.862;4.360;2022-08-20T06:06:05;15.60;99.90
20125;DHT22;10223;50.862;4.360;2022-08-20T06:08:33;15.60;99.90
20125;DHT22;10223;50.862;4.360;2022-08-20T06:11:01;15.60;99.90
20125;DHT22;10223;50.862;4.360;2022-08-20T06:13:28;15.70;99.90
20125;DHT22;10223;50.862;4.360;2022-08-20T06:15:56;15.80;99.90
20125;DHT22;10223;50.862;4.360;2022-08-20T06:18:23;15.90;99.90
20125;DHT22;10223;50.862;4.360;2022-08-20T06:20:50;15.90;99.90
20125;DHT22;10223;50.862;4.360;2022-08-20T06:23:18;15.90;99.90
20125;DHT22;10223;50.862;4.360;2022-08-20T06:25:45;15.90;99.90
20125;DHT22;10223;50.862;4.360;2022-08-20T06:28:16;16.00;99.90
20125;DHT22;10223;50.862;4.360;2022-08-20T06:30:43;16.20;99.90
20125;DHT22;10223;50.862;4.360;2022-08-20T06:33:10;16.20;99.90
20125;DHT22;10223;50.862;4.360;2022-08-20T06:35:37;16.30;99.90
20125;DHT22;10223;50.862;4.360;2022-08-20T06:38:04;16.20;99.90
20125;DHT22;10223;50.862;4.360;2022-08-20T06:40:31;16.20;99.90
20125;DHT22;10223;50.862;4.360;2022-08-20T06:42:58;16.30;99.90
20125;DHT22;10223;50.862;4.360;2022-08-20T06:45:29;16.20;99.90
20125;DHT22;10223;50.862;4.360;2022-08-20T06:47:59;16.30;99.90
20125;DHT22;10223;50.862;4.360;2022-08-20T06:50:29;16.50;99.90
20125;DHT22;10223;50.862;4.360;2022-08-20T06:52:57;16.70;99.90
20125;DHT22;10223;50.862;4.360;2022-08-20T06:55:25;16.60;99.90
20125;DHT22;10223;50.862;4.360;2022-08-20T06:57:56;16.80;99.90
20125;DHT22;10223;50.862;4.360;2022-08-20T07:00:24;17.00;99.90
20125;DHT22;10223;50.862;4.360;2022-08-20T07:02:52;17.20;99.90
20125;DHT22;10223;50.862;4.360;2022-08-20T07:05:19;17.30;99.90
20125;DHT22;10223;50.862;4.360;2022-08-20T07:07:47;17.40;99.90
20125;DHT22;10223;50.862;4.360;2022-08-20T07:10:16;17.50;99.90
20125;DHT22;10223;50.862;4.360;2022-08-20T07:12:46;17.60;99.90
20125;DHT22;10223;50.862;4.360;2022-08-20T07:15:15;17.60;99.90
20125;DHT22;10223;50.862;4.360;2022-08-20T07:17:48;17.40;99.90
20125;DHT22;10223;50.862;4.360;2022-08-20T07:20:17;17.50;99.90
20125;DHT22;10223;50.862;4.360;2022-08-20T07:22:44;17.60;99.90
20125;DHT22;10223;50.862;4.360;2022-08-20T07:25:13;17.60;99.90
20125;DHT22;10223;50.862;4.360;2022-08-20T07:27:41;17.80;99.90
20125;DHT22;10223;50.862;4.360;2022-08-20T07:30:11;18.10;99.90
20125;DHT22;10223;50.862;4.360;2022-08-20T07:32:55;18.20;99.90
20125;DHT22;10223;50.862;4.360;2022-08-20T07:35:24;18.40;99.90
20125;DHT22;10223;50.862;4.360;2022-08-20T07:37:52;18.80;99.90
20125;DHT22;10223;50.862;4.360;2022-08-20T07:40:22;19.00;99.90
20125;DHT22;10223;50.862;4.360;2022-08-20T07:42:49;19.10;99.90
20125;DHT22;10223;50.862;4.360;2022-08-20T07:45:17;19.40;99.90
20125;DHT22;10223;50.862;4.360;2022-08-20T07:47:45;19.60;99.90
20125;DHT22;10223;50.862;4.360;2022-08-20T07:50:14;19.80;99.90
20125;DHT22;10223;50.862;4.360;2022-08-20T07:52:43;19.90;99.90
20125;DHT22;10223;50.862;4.360;2022-08-20T07:55:12;20.20;99.90
20125;DHT22;10223;50.862;4.360;2022-08-20T07:57:40;20.10;99.90
20125;DHT22;10223;50.862;4.360;2022-08-20T08:00:10;20.40;99.90
20125;DHT22;10223;50.862;4.360;2022-08-20T08:02:38;20.60;99.90
20125;DHT22;10223;50.862;4.360;2022-08-20T08:05:06;20.90;99.90
20125;DHT22;10223;50.862;4.360;2022-08-20T08:07:33;20.80;99.90
20125;DHT22;10223;50.862;4.360;2022-08-20T08:10:05;20.60;99.90
20125;DHT22;10223;50.862;4.360;2022-08-20T08:12:35;20.90;99.90
20125;DHT22;10223;50.862;4.360;2022-08-20T08:15:03;21.40;99.90
20125;DHT22;10223;50.862;4.360;2022-08-20T08:17:32;21.80;99.90
20125;DHT22;10223;50.862;4.360;2022-08-20T08:19:59;22.00;99.90
20125;DHT22;10223;50.862;4.360;2022-08-20T08:22:26;22.10;99.90
20125;DHT22;10223;50.862;4.360;2022-08-20T08:24:53;22.00;99.90
20125;DHT22;10223;50.862;4.360;2022-08-20T08:27:25;22.10;99.90
20125;DHT22;10223;50.862;4.360;2022-08-20T08:29:55;22.20;99.90
20125;DHT22;10223;50.862;4.360;2022-08-20T08:32:22;22.10;99.90
20125;DHT22;10223;50.862;4.360;2022-08-20T08:34:49;22.30;99.90
20125;DHT22;10223;50.862;4.360;2022-08-20T08:37:16;22.90;99.90
20125;DHT22;10223;50.862;4.360;2022-08-20T08:39:43;23.50;99.90
20125;DHT22;10223;50.862;4.360;2022-08-20T08:42:22;23.70;99.90
20125;DHT22;10223;50.862;4.360;2022-08-20T08:44:52;24.00;99.90
20125;DHT22;10223;50.862;4.360;2022-08-20T08:47:26;24.30;99.90
20125;DHT22;10223;50.862;4.360;2022-08-20T08:49:55;24.30;99.90
20125;DHT22;10223;50.862;4.360;2022-08-20T08:52:24;24.40;99.90
20125;DHT22;10223;50.862;4.360;2022-08-20T08:54:54;24.60;99.90
20125;DHT22;10223;50.862;4.360;2022-08-20T08:57:23;24.60;99.90
20125;DHT22;10223;50.862;4.360;2022-08-20T08:59:54;24.70;99.90
20125;DHT22;10223;50.862;4.360;2022-08-20T09:02:24;24.40;99.90
20125;DHT22;10223;50.862;4.360;2022-08-20T09:04:53;24.10;99.90
20125;DHT22;10223;50.862;4.360;2022-08-20T09:07:22;24.00;99.90
20125;DHT22;10223;50.862;4.360;2022-08-20T09:09:51;23.90;99.90
20125;DHT22;10223;50.862;4.360;2022-08-20T09:12:19;23.80;99.90
20125;DHT22;10223;50.862;4.360;2022-08-20T09:14:47;23.70;99.90
20125;DHT22;10223;50.862;4.360;2022-08-20T09:17:18;23.60;99.90
20125;DHT22;10223;50.862;4.360;2022-08-20T09:19:45;24.00;99.90
20125;DHT22;10223;50.862;4.360;2022-08-20T09:22:18;24.20;99.90
20125;DHT22;10223;50.862;4.360;2022-08-20T09:24:45;24.40;99.90
20125;DHT22;10223;50.862;4.360;2022-08-20T09:27:12;24.50;99.90
20125;DHT22;10223;50.862;4.360;2022-08-20T09:29:39;24.60;99.90
20125;DHT22;10223;50.862;4.360;2022-08-20T09:32:08;24.40;99.90
20125;DHT22;10223;50.862;4.360;2022-08-20T09:34:41;24.20;99.90
20125;DHT22;10223;50.862;4.360;2022-08-20T09:37:08;23.70;99.90
20125;DHT22;10223;50.862;4.360;2022-08-20T09:39:36;23.50;99.90
20125;DHT22;10223;50.862;4.360;2022-08-20T09:42:08;23.70;99.90
20125;DHT22;10223;50.862;4.360;2022-08-20T09:44:38;24.00;99.90
20125;DHT22;10223;50.862;4.360;2022-08-20T09:47:06;24.30;99.90
20125;DHT22;10223;50.862;4.360;2022-08-20T09:49:33;24.20;99.90
20125;DHT22;10223;50.862;4.360;2022-08-20T09:52:05;24.30;99.90
20125;DHT22;10223;50.862;4.360;2022-08-20T09:54:33;24.60;99.90
20125;DHT22;10223;50.862;4.360;2022-08-20T09:57:03;24.60;99.90
20125;DHT22;10223;50.862;4.360;2022-08-20T09:59:32;24.50;99.90
20125;DHT22;10223;50.862;4.360;2022-08-20T10:02:00;24.50;99.90
20125;DHT22;10223;50.862;4.360;2022-08-20T10:04:27;24.50;99.90
20125;DHT22;10223;50.862;4.360;2022-08-20T10:06:54;24.40;99.90
20125;DHT22;10223;50.862;4.360;2022-08-20T10:09:23;24.60;99.90
20125;DHT22;10223;50.862;4.360;2022-08-20T10:11:50;24.70;99.90
20125;DHT22;10223;50.862;4.360;2022-08-20T10:14:17;24.80;99.90
20125;DHT22;10223;50.862;4.360;2022-08-20T10:16:44;25.10;99.90
20125;DHT22;10223;50.862;4.360;2022-08-20T10:19:11;25.30;99.90
20125;DHT22;10223;50.862;4.360;2022-08-20T10:21:37;25.40;99.90
20125;DHT22;10223;50.862;4.360;2022-08-20T10:24:04;25.40;99.90
20125;DHT22;10223;50.862;4.360;2022-08-20T10:26:33;25.50;99.90
20125;DHT22;10223;50.862;4.360;2022-08-20T10:29:00;25.50;99.90
20125;DHT22;10223;50.862;4.360;2022-08-20T10:31:27;25.70;99.90
20125;DHT22;10223;50.862;4.360;2022-08-20T10:33:54;25.80;99.90
20125;DHT22;10223;50.862;4.360;2022-08-20T10:36:22;25.20;99.90
20125;DHT22;10223;50.862;4.360;2022-08-20T10:38:49;24.90;99.90
20125;DHT22;10223;50.862;4.360;2022-08-20T10:41:16;25.00;99.90
20125;DHT22;10223;50.862;4.360;2022-08-20T10:43:46;25.20;99.90
20125;DHT22;10223;50.862;4.360;2022-08-20T10:46:13;25.30;99.90
20125;DHT22;10223;50.862;4.360;2022-08-20T10:48:40;25.10;99.90
20125;DHT22;10223;50.862;4.360;2022-08-20T10:51:07;25.20;99.90
20125;DHT22;10223;50.862;4.360;2022-08-20T10:53:35;25.50;99.90
20125;DHT22;10223;50.862;4.360;2022-08-20T10:56:02;25.50;99.90
20125;DHT22;10223;50.862;4.360;2022-08-20T10:58:29;25.70;99.90
20125;DHT22;10223;50.862;4.360;2022-08-20T11:00:58;25.60;99.90
20125;DHT22;10223;50.862;4.360;2022-08-20T11:03:25;25.80;99.90
20125;DHT22;10223;50.862;4.360;2022-08-20T11:05:52;25.90;99.90
20125;DHT22;10223;50.862;4.360;2022-08-20T11:08:18;25.70;99.90
20125;DHT22;10223;50.862;4.360;2022-08-20T11:10:45;25.90;99.90
20125;DHT22;10223;50.862;4.360;2022-08-20T11:13:12;26.00;99.90
20125;DHT22;10223;50.862;4.360;2022-08-20T11:15:41;25.90;99.90
20125;DHT22;10223;50.862;4.360;2022-08-20T11:18:11;26.10;99.90
20125;DHT22;10223;50.862;4.360;2022-08-20T11:20:39;26.00;99.90
20125;DHT22;10223;50.862;4.360;2022-08-20T11:23:06;26.30;99.90
20125;DHT22;10223;50.862;4.360;2022-08-20T11:25:33;26.40;99.90
20125;DHT22;10223;50.862;4.360;2022-08-20T11:28:00;26.50;99.90
20125;DHT22;10223;50.862;4.360;2022-08-20T11:30:31;26.30;99.90
20125;DHT22;10223;50.862;4.360;2022-08-20T11:32:59;26.20;99.90
20125;DHT22;10223;50.862;4.360;2022-08-20T11:35:29;26.10;99.90
20125;DHT22;10223;50.862;4.360;2022-08-20T11:37:57;26.00;99.90
20125;DHT22;10223;50.862;4.360;2022-08-20T11:40:25;25.90;99.90
20125;DHT22;10223;50.862;4.360;2022-08-20T11:42:53;26.10;99.90
20125;DHT22;10223;50.862;4.360;2022-08-20T11:45:20;26.40;99.90
20125;DHT22;10223;50.862;4.360;2022-08-20T11:47:47;26.40;99.90
20125;DHT22;10223;50.862;4.360;2022-08-20T11:50:16;26.40;99.90
20125;DHT22;10223;50.862;4.360;2022-08-20T11:52:45;26.60;99.90
20125;DHT22;10223;50.862;4.360;2022-08-20T11:55:13;26.50;99.90
20125;DHT22;10223;50.862;4.360;2022-08-20T11:57:43;26.40;99.90
20125;DHT22;10223;50.862;4.360;2022-08-20T12:00:12;26.30;99.90
20125;DHT22;10223;50.862;4.360;2022-08-20T12:02:40;26.10;99.90
20125;DHT22;10223;50.862;4.360;2022-08-20T12:05:08;26.00;99.90
20125;DHT22;10223;50.862;4.360;2022-08-20T12:07:35;26.30;99.90
20125;DHT22;10223;50.862;4.360;2022-08-20T12:10:05;26.80;99.90
20125;DHT22;10223;50.862;4.360;2022-08-20T12:12:34;26.80;99.90
20125;DHT22;10223;50.862;4.360;2022-08-20T12:15:02;26.60;99.90
20125;DHT22;10223;50.862;4.360;2022-08-20T12:17:29;26.80;99.90
20125;DHT22;10223;50.862;4.360;2022-08-20T12:20:00;26.70;99.90
20125;DHT22;10223;50.862;4.360;2022-08-20T12:22:27;26.90;99.90
20125;DHT22;10223;50.862;4.360;2022-08-20T12:24:54;26.80;99.90
20125;DHT22;10223;50.862;4.360;2022-08-20T12:27:24;26.90;99.90
20125;DHT22;10223;50.862;4.360;2022-08-20T12:29:53;26.80;99.90
20125;DHT22;10223;50.862;4.360;2022-08-20T12:32:20;26.80;99.90
20125;DHT22;10223;50.862;4.360;2022-08-20T12:34:48;26.90;99.90
20125;DHT22;10223;50.862;4.360;2022-08-20T12:37:17;26.80;99.90
20125;DHT22;10223;50.862;4.360;2022-08-20T12:39:46;26.90;99.90
20125;DHT22;10223;50.862;4.360;2022-08-20T12:42:15;27.20;99.90
20125;DHT22;10223;50.862;4.360;2022-08-20T12:44:43;27.50;99.90
20125;DHT22;10223;50.862;4.360;2022-08-20T12:47:13;27.50;99.90
20125;DHT22;10223;50.862;4.360;2022-08-20T12:49:41;27.10;99.90
20125;DHT22;10223;50.862;4.360;2022-08-20T12:52:10;27.00;99.90
20125;DHT22;10223;50.862;4.360;2022-08-20T12:54:39;26.30;99.90
20125;DHT22;10223;50.862;4.360;2022-08-20T12:57:12;26.30;99.90
20125;DHT22;10223;50.862;4.360;2022-08-20T12:59:39;26.30;99.90
20125;DHT22;10223;50.862;4.360;2022-08-20T13:02:08;26.60;99.90
20125;DHT22;10223;50.862;4.360;2022-08-20T13:04:35;26.80;99.90
20125;DHT22;10223;50.862;4.360;2022-08-20T13:07:02;26.50;99.90
20125;DHT22;10223;50.862;4.360;2022-08-20T13:09:29;26.60;99.90
20125;DHT22;10223;50.862;4.360;2022-08-20T13:11:57;26.80;99.90
20125;DHT22;10223;50.862;4.360;2022-08-20T13:14:24;27.00;99.90
20125;DHT22;10223;50.862;4.360;2022-08-20T13:16:54;27.20;99.90
20125;DHT22;10223;50.862;4.360;2022-08-20T13:19:24;27.00;99.90
20125;DHT22;10223;50.862;4.360;2022-08-20T13:21:51;27.30;99.90
20125;DHT22;10223;50.862;4.360;2022-08-20T13:24:18;27.30;99.90
20125;DHT22;10223;50.862;4.360;2022-08-20T13:26:46;27.50;99.90
20125;DHT22;10223;50.862;4.360;2022-08-20T13:29:15;27.50;99.90
20125;DHT22;10223;50.862;4.360;2022-08-20T13:31:42;27.70;99.90
20125;DHT22;10223;50.862;4.360;2022-08-20T13:34:09;27.70;99.90
20125;DHT22;10223;50.862;4.360;2022-08-20T13:36:38;28.00;99.90
20125;DHT22;10223;50.862;4.360;2022-08-20T13:39:06;28.00;99.90
20125;DHT22;10223;50.862;4.360;2022-08-20T13:41:33;27.80;99.90
20125;DHT22;10223;50.862;4.360;2022-08-20T13:44:00;28.20;99.90
20125;DHT22;10223;50.862;4.360;2022-08-20T13:46:27;28.40;99.90
20125;DHT22;10223;50.862;4.360;2022-08-20T13:48:54;28.80;99.90
20125;DHT22;10223;50.862;4.360;2022-08-20T13:51:21;28.60;99.90
20125;DHT22;10223;50.862;4.360;2022-08-20T13:53:49;28.40;99.90
20125;DHT22;10223;50.862;4.360;2022-08-20T13:56:16;28.50;99.90
20125;DHT22;10223;50.862;4.360;2022-08-20T13:58:43;28.80;99.90
20125;DHT22;10223;50.862;4.360;2022-08-20T14:01:10;28.90;99.90
20125;DHT22;10223;50.862;4.360;2022-08-20T14:03:37;28.80;99.90
20125;DHT22;10223;50.862;4.360;2022-08-20T14:06:04;29.20;99.80
20125;DHT22;10223;50.862;4.360;2022-08-20T14:08:31;29.50;99.10
20125;DHT22;10223;50.862;4.360;2022-08-20T14:10:59;29.40;98.50
20125;DHT22;10223;50.862;4.360;2022-08-20T14:13:27;29.20;98.50
20125;DHT22;10223;50.862;4.360;2022-08-20T14:15:54;29.10;99.20
20125;DHT22;10223;50.862;4.360;2022-08-20T14:18:21;29.00;98.90
20125;DHT22;10223;50.862;4.360;2022-08-20T14:20:48;29.10;98.60
20125;DHT22;10223;50.862;4.360;2022-08-20T14:23:15;28.90;98.50
20125;DHT22;10223;50.862;4.360;2022-08-20T14:25:44;29.10;98.30
20125;DHT22;10223;50.862;4.360;2022-08-20T14:28:15;29.20;97.80
20125;DHT22;10223;50.862;4.360;2022-08-20T14:30:43;29.00;97.30
20125;DHT22;10223;50.862;4.360;2022-08-20T14:33:10;28.50;98.00
20125;DHT22;10223;50.862;4.360;2022-08-20T14:35:37;28.20;98.30
20125;DHT22;10223;50.862;4.360;2022-08-20T14:38:04;27.80;98.70
20125;DHT22;10223;50.862;4.360;2022-08-20T14:40:32;27.80;99.00
20125;DHT22;10223;50.862;4.360;2022-08-20T14:42:59;27.50;99.20
20125;DHT22;10223;50.862;4.360;2022-08-20T14:45:27;27.60;99.70
20125;DHT22;10223;50.862;4.360;2022-08-20T14:47:55;27.90;99.20
20125;DHT22;10223;50.862;4.360;2022-08-20T14:50:24;28.00;98.70
20125;DHT22;10223;50.862;4.360;2022-08-20T14:52:52;28.10;98.90
20125;DHT22;10223;50.862;4.360;2022-08-20T14:55:21;28.30;99.40
20125;DHT22;10223;50.862;4.360;2022-08-20T14:57:48;28.30;98.30
20125;DHT22;10223;50.862;4.360;2022-08-20T15:00:18;28.20;98.40
20125;DHT22;10223;50.862;4.360;2022-08-20T15:02:46;28.60;98.50
20125;DHT22;10223;50.862;4.360;2022-08-20T15:05:14;28.80;98.80
20125;DHT22;10223;50.862;4.360;2022-08-20T15:07:43;29.40;97.80
20125;DHT22;10223;50.862;4.360;2022-08-20T15:10:13;29.70;97.10
20125;DHT22;10223;50.862;4.360;2022-08-20T15:12:40;29.80;96.60
20125;DHT22;10223;50.862;4.360;2022-08-20T15:15:10;29.80;96.20
20125;DHT22;10223;50.862;4.360;2022-08-20T15:17:37;29.80;96.10
20125;DHT22;10223;50.862;4.360;2022-08-20T15:20:08;29.20;96.90
20125;DHT22;10223;50.862;4.360;2022-08-20T15:22:36;28.70;97.00
20125;DHT22;10223;50.862;4.360;2022-08-20T15:25:04;28.50;97.90
20125;DHT22;10223;50.862;4.360;2022-08-20T15:27:31;28.30;98.10
20125;DHT22;10223;50.862;4.360;2022-08-20T15:30:02;28.30;98.00
20125;DHT22;10223;50.862;4.360;2022-08-20T15:32:30;28.20;98.00
20125;DHT22;10223;50.862;4.360;2022-08-20T15:34:57;27.00;99.00
20125;DHT22;10223;50.862;4.360;2022-08-20T15:37:25;26.60;99.90